PWSweather.com
Personal Weather Stations
Station Observations

BunburyAU

Lat: -33.378333, Lon: 115.651667

Elevation: 95

Station Type: Fine Offset WH2081

http://www.sedgleymanor.com/wx/index.htm

Latest ConditionsUpdated 6:15:01 PM GMT+08:08 Wednesday, Apr 23, 2014
Currently Today's Max Today's Min Today's Average
Temperature 67.1°F19.5°C 79.7°F26.5°C 46.0°F7.8°C 56.3°F13.5°C
Dew Point 48.9°F9.4°C 55.6°F13.1°C 45.2°F7.3°C 49.0°F9.4°C
Winds 1.9 mph SE3.1 kmh SE 5.3 mph ESE8.5 kmh ESE - 1.3 mph 2.1 kmh
Wind Gusts 4.5 mph7.2 kmh 13.0 mph20.9 kmh - -
Humidity 52% 100% 34% 81%
Pressure 29.97 in1014.9 mb 30.09 in1019.0 mb 29.95 in1014.2 mb -
Hour Temp Dew Point Humidity Winds Wind Gusts Pressure Precip Precip Rate Daily Precip Total
06:15 PM 67.1°F19.5°C 48.9°F9.4°C 52% 1.9 mph SE3.1 kmh SE 4.5 mph7.2 kmh 29.97 in1014.9 mb 0.00 in0.0 mm 0.00 in/hr0.0 mm/hr 0.00 in0.0 mm
06:00 PM 68.4°F20.2°C 49.0°F9.4°C 50% 1.4 mph SE2.3 kmh SE 3.8 mph6.1 kmh 29.96 in1014.6 mb 0.00 in0.0 mm 0.00 in/hr0.0 mm/hr 0.00 in0.0 mm
05:45 PM 69.8°F21.0°C 48.1°F8.9°C 46% 2.0 mph ESE3.2 kmh ESE 5.4 mph8.7 kmh 29.96 in1014.6 mb 0.00 in0.0 mm 0.00 in/hr0.0 mm/hr 0.00 in0.0 mm
05:30 PM 71.2°F21.8°C 48.2°F9.0°C 44% 3.3 mph ESE5.3 kmh ESE 11.4 mph18.3 kmh 29.96 in1014.6 mb 0.00 in0.0 mm 0.00 in/hr0.0 mm/hr 0.00 in0.0 mm
05:15 PM 72.1°F22.3°C 48.4°F9.1°C 43% 3.3 mph SE5.3 kmh SE 6.9 mph11.1 kmh 29.96 in1014.6 mb 0.00 in0.0 mm 0.00 in/hr0.0 mm/hr 0.00 in0.0 mm
05:00 PM 72.9°F22.7°C 48.5°F9.2°C 42% 3.7 mph ESE6.0 kmh ESE 8.3 mph13.4 kmh 29.96 in1014.6 mb 0.00 in0.0 mm 0.00 in/hr0.0 mm/hr 0.00 in0.0 mm
04:45 PM 75.7°F24.3°C 49.1°F9.5°C 39% 3.8 mph SE6.1 kmh SE 9.2 mph14.8 kmh 29.96 in1014.6 mb 0.00 in0.0 mm 0.00 in/hr0.0 mm/hr 0.00 in0.0 mm
04:30 PM 76.6°F24.8°C 49.2°F9.6°C 38% 3.9 mph ESE6.3 kmh ESE 8.3 mph13.4 kmh 29.96 in1014.6 mb 0.00 in0.0 mm 0.00 in/hr0.0 mm/hr 0.00 in0.0 mm
04:15 PM 77.7°F25.4°C 48.7°F9.3°C 36% 3.5 mph ESE5.6 kmh ESE 8.3 mph13.4 kmh 29.96 in1014.6 mb 0.00 in0.0 mm 0.00 in/hr0.0 mm/hr 0.00 in0.0 mm
04:00 PM 77.2°F25.1°C 48.2°F9.0°C 36% 5.3 mph ESE8.5 kmh ESE 11.4 mph18.3 kmh 29.95 in1014.2 mb 0.00 in0.0 mm 0.00 in/hr0.0 mm/hr 0.00 in0.0 mm
03:45 PM 77.4°F25.2°C 49.1°F9.5°C 37% 3.5 mph E5.6 kmh E 7.6 mph12.2 kmh 29.95 in1014.2 mb 0.00 in0.0 mm 0.00 in/hr0.0 mm/hr 0.00 in0.0 mm
03:30 PM 77.2°F25.1°C 48.2°F9.0°C 36% 3.7 mph SE6.0 kmh SE 8.3 mph13.4 kmh 29.96 in1014.6 mb 0.00 in0.0 mm 0.00 in/hr0.0 mm/hr 0.00 in0.0 mm
03:15 PM 79.7°F26.5°C 48.9°F9.4°C 34% 2.0 mph SE3.2 kmh SE 8.3 mph13.4 kmh 29.96 in1014.6 mb 0.00 in0.0 mm 0.00 in/hr0.0 mm/hr 0.00 in0.0 mm
03:00 PM 77.7°F25.4°C 48.7°F9.3°C 36% 3.3 mph S5.3 kmh S 9.8 mph15.8 kmh 29.96 in1014.6 mb 0.00 in0.0 mm 0.00 in/hr0.0 mm/hr 0.00 in0.0 mm
02:45 PM 77.4°F25.2°C 48.4°F9.1°C 36% 3.7 mph SSE6.0 kmh SSE 11.4 mph18.3 kmh 29.96 in1014.6 mb 0.00 in0.0 mm 0.00 in/hr0.0 mm/hr 0.00 in0.0 mm
02:30 PM 76.1°F24.5°C 48.7°F9.3°C 38% 4.1 mph SE6.6 kmh SE 10.7 mph17.2 kmh 29.97 in1014.9 mb 0.00 in0.0 mm 0.00 in/hr0.0 mm/hr 0.00 in0.0 mm
02:15 PM 77.9°F25.5°C 49.6°F9.8°C 37% 3.7 mph E6.0 kmh E 9.2 mph14.8 kmh 29.97 in1014.9 mb 0.00 in0.0 mm 0.00 in/hr0.0 mm/hr 0.00 in0.0 mm
02:00 PM 78.6°F25.9°C 49.5°F9.7°C 36% 2.9 mph ESE4.7 kmh ESE 12.1 mph19.5 kmh 29.97 in1014.9 mb 0.00 in0.0 mm 0.00 in/hr0.0 mm/hr 0.00 in0.0 mm
01:45 PM 76.6°F24.8°C 50.5°F10.3°C 40% 3.4 mph E5.5 kmh E 9.2 mph14.8 kmh 29.98 in1015.2 mb 0.00 in0.0 mm 0.00 in/hr0.0 mm/hr 0.00 in0.0 mm
01:30 PM 75.7°F24.3°C 49.7°F9.8°C 40% 3.9 mph E6.3 kmh E 10.7 mph17.2 kmh 29.99 in1015.6 mb 0.00 in0.0 mm 0.00 in/hr0.0 mm/hr 0.00 in0.0 mm
01:15 PM 76.8°F24.9°C 51.4°F10.8°C 41% 3.6 mph SE5.8 kmh SE 10.7 mph17.2 kmh 29.99 in1015.6 mb 0.00 in0.0 mm 0.00 in/hr0.0 mm/hr 0.00 in0.0 mm
01:00 PM 72.1°F22.3°C 50.8°F10.4°C 47% 3.3 mph ESE5.3 kmh ESE 9.2 mph14.8 kmh 30.01 in1016.3 mb 0.00 in0.0 mm 0.00 in/hr0.0 mm/hr 0.00 in0.0 mm
12:45 PM 72.3°F22.4°C 50.4°F10.2°C 46% 4.2 mph SE6.8 kmh SE 9.2 mph14.8 kmh 30.01 in1016.3 mb 0.00 in0.0 mm 0.00 in/hr0.0 mm/hr 0.00 in0.0 mm
12:30 PM 76.5°F24.7°C 51.0°F10.6°C 41% 3.6 mph NE5.8 kmh NE 9.8 mph15.8 kmh 30.02 in1016.6 mb 0.00 in0.0 mm 0.00 in/hr0.0 mm/hr 0.00 in0.0 mm
12:15 PM 74.7°F23.7°C 51.3°F10.7°C 44% 4.0 mph ESE6.4 kmh ESE 12.1 mph19.5 kmh 30.02 in1016.6 mb 0.00 in0.0 mm 0.00 in/hr0.0 mm/hr 0.00 in0.0 mm
12:00 PM 78.8°F26.0°C 48.9°F9.4°C 35% 3.2 mph ESE5.1 kmh ESE 9.2 mph14.8 kmh 30.03 in1016.9 mb 0.00 in0.0 mm 0.00 in/hr0.0 mm/hr 0.00 in0.0 mm
11:45 AM 77.7°F25.4°C 50.1°F10.1°C 38% 3.4 mph E5.5 kmh E 9.2 mph14.8 kmh 30.04 in1017.3 mb 0.00 in0.0 mm 0.00 in/hr0.0 mm/hr 0.00 in0.0 mm
11:30 AM 74.8°F23.8°C 50.9°F10.5°C 43% 3.5 mph E5.6 kmh E 9.2 mph14.8 kmh 30.04 in1017.3 mb 0.00 in0.0 mm 0.00 in/hr0.0 mm/hr 0.00 in0.0 mm
11:15 AM 73.4°F23.0°C 50.2°F10.1°C 44% 3.5 mph E5.6 kmh E 12.1 mph19.5 kmh 30.04 in1017.3 mb 0.00 in0.0 mm 0.00 in/hr0.0 mm/hr 0.00 in0.0 mm
11:00 AM 72.9°F22.7°C 51.5°F10.8°C 47% 3.6 mph SE5.8 kmh SE 13.0 mph20.9 kmh 30.04 in1017.3 mb 0.00 in0.0 mm 0.00 in/hr0.0 mm/hr 0.00 in0.0 mm
10:45 AM 71.2°F21.8°C 50.0°F10.0°C 47% 2.6 mph SE4.2 kmh SE 10.7 mph17.2 kmh 30.05 in1017.6 mb 0.00 in0.0 mm 0.00 in/hr0.0 mm/hr 0.00 in0.0 mm
10:30 AM 70.7°F21.5°C 51.2°F10.7°C 50% 3.4 mph SE5.5 kmh SE 9.8 mph15.8 kmh 30.05 in1017.6 mb 0.00 in0.0 mm 0.00 in/hr0.0 mm/hr 0.00 in0.0 mm
10:15 AM 72.1°F22.3°C 55.6°F13.1°C 56% 2.4 mph SE3.9 kmh SE 6.0 mph9.7 kmh 30.05 in1017.6 mb 0.00 in0.0 mm 0.00 in/hr0.0 mm/hr 0.00 in0.0 mm
10:00 AM 68.7°F20.4°C 55.2°F12.9°C 62% 2.0 mph ENE3.2 kmh ENE 6.9 mph11.1 kmh 30.06 in1017.9 mb 0.00 in0.0 mm 0.00 in/hr0.0 mm/hr 0.00 in0.0 mm
09:45 AM 68.2°F20.1°C 55.1°F12.8°C 63% 1.1 mph ENE1.8 kmh ENE 3.8 mph6.1 kmh 30.06 in1017.9 mb 0.00 in0.0 mm 0.00 in/hr0.0 mm/hr 0.00 in0.0 mm
09:30 AM 65.8°F18.8°C 55.4°F13.0°C 69% 0.9 mph N1.4 kmh N 3.8 mph6.1 kmh 30.07 in1018.3 mb 0.00 in0.0 mm 0.00 in/hr0.0 mm/hr 0.00 in0.0 mm
09:15 AM 63.5°F17.5°C 54.3°F12.4°C 72% 0.5 mph NNE0.8 kmh NNE 3.1 mph5.0 kmh 30.07 in1018.3 mb 0.00 in0.0 mm 0.00 in/hr0.0 mm/hr 0.00 in0.0 mm
09:00 AM 60.4°F15.8°C 53.6°F12.0°C 78% 0.9 mph E1.4 kmh E 3.8 mph6.1 kmh 30.07 in1018.3 mb 0.00 in0.0 mm 0.00 in/hr0.0 mm/hr 0.00 in0.0 mm
08:45 AM 59.4°F15.2°C 53.5°F11.9°C 81% 0.9 mph E1.4 kmh E 3.1 mph5.0 kmh 30.07 in1018.3 mb 0.00 in0.0 mm 0.00 in/hr0.0 mm/hr 0.00 in0.0 mm
08:30 AM 57.2°F14.0°C 52.7°F11.5°C 85% Calm Calm 1.6 mph2.6 kmh 30.07 in1018.3 mb 0.00 in0.0 mm 0.00 in/hr0.0 mm/hr 0.00 in0.0 mm
08:15 AM 54.3°F12.4°C 50.8°F10.4°C 88% 1.2 mph NE1.9 kmh NE 3.1 mph5.0 kmh 30.07 in1018.3 mb 0.00 in0.0 mm 0.00 in/hr0.0 mm/hr 0.00 in0.0 mm
08:00 AM 52.5°F11.4°C 49.4°F9.7°C 89% 1.5 mph NE2.4 kmh NE 3.1 mph5.0 kmh 30.07 in1018.3 mb 0.00 in0.0 mm 0.00 in/hr0.0 mm/hr 0.00 in0.0 mm
07:45 AM 52.0°F11.1°C 49.4°F9.7°C 91% 0.4 mph NE0.6 kmh NE 2.2 mph3.5 kmh 30.07 in1018.3 mb 0.00 in0.0 mm 0.00 in/hr0.0 mm/hr 0.00 in0.0 mm
07:30 AM 50.9°F10.5°C 49.0°F9.4°C 93% 0.1 mph E0.2 kmh E 1.6 mph2.6 kmh 30.05 in1017.6 mb 0.00 in0.0 mm 0.00 in/hr0.0 mm/hr 0.00 in0.0 mm
07:15 AM 50.0°F10.0°C 48.1°F8.9°C 93% 0.3 mph NE0.5 kmh NE 1.6 mph2.6 kmh 30.04 in1017.3 mb 0.00 in0.0 mm 0.00 in/hr0.0 mm/hr 0.00 in0.0 mm
07:00 AM 49.6°F9.8°C 48.3°F9.1°C 95% 0.3 mph NE0.5 kmh NE 2.2 mph3.5 kmh 30.04 in1017.3 mb 0.00 in0.0 mm 0.00 in/hr0.0 mm/hr 0.00 in0.0 mm
06:45 AM 49.3°F9.6°C 47.9°F8.8°C 95% 0.3 mph ENE0.5 kmh ENE 2.2 mph3.5 kmh 30.05 in1017.6 mb 0.00 in0.0 mm 0.00 in/hr0.0 mm/hr 0.00 in0.0 mm
06:34 AM 50.7°F10.4°C 48.5°F9.2°C 92% Calm Calm -- 30.07 in1018.3 mb 0.00 in0.0 mm 0.00 in/hr0.0 mm/hr 0.00 in0.0 mm
06:33 AM 56.8°F13.8°C 51.4°F10.8°C 82% 1.8 mph SE2.9 kmh SE 3.8 mph6.1 kmh 30.08 in1018.6 mb 0.00 in0.0 mm 0.00 in/hr0.0 mm/hr 0.00 in0.0 mm
06:28 AM 49.3°F9.6°C 48.2°F9.0°C 96% 1.3 mph E2.1 kmh E 3.1 mph5.0 kmh 30.05 in1017.6 mb 0.00 in0.0 mm 0.00 in/hr0.0 mm/hr 0.00 in0.0 mm
06:23 AM 49.5°F9.7°C 48.6°F9.2°C 97% 1.3 mph E2.1 kmh E 3.1 mph5.0 kmh 30.05 in1017.6 mb 0.00 in0.0 mm 0.00 in/hr0.0 mm/hr 0.00 in0.0 mm